sensor_id;sensor_type;location;lat;lon;timestamp;P1;durP1;ratioP1;P2;durP2;ratioP2
40176;SDS011;31511;46.176;9.874;2024-01-27T00:01:12;30.02;;;13.27;;
40176;SDS011;31511;46.176;9.874;2024-01-27T00:06:41;19.50;;;11.27;;
40176;SDS011;31511;46.176;9.874;2024-01-27T00:09:26;23.85;;;14.00;;
40176;SDS011;31511;46.176;9.874;2024-01-27T00:14:55;19.08;;;12.82;;
40176;SDS011;31511;46.176;9.874;2024-01-27T00:20:25;21.73;;;12.15;;
40176;SDS011;31511;46.176;9.874;2024-01-27T00:23:10;22.52;;;12.32;;
40176;SDS011;31511;46.176;9.874;2024-01-27T00:25:55;16.45;;;12.10;;
40176;SDS011;31511;46.176;9.874;2024-01-27T00:28:40;28.38;;;14.43;;
40176;SDS011;31511;46.176;9.874;2024-01-27T00:34:09;17.88;;;11.27;;
40176;SDS011;31511;46.176;9.874;2024-01-27T00:39:38;22.63;;;12.82;;
40176;SDS011;31511;46.176;9.874;2024-01-27T00:42:24;17.60;;;11.45;;
40176;SDS011;31511;46.176;9.874;2024-01-27T00:45:09;20.05;;;12.75;;
40176;SDS011;31511;46.176;9.874;2024-01-27T00:47:53;23.55;;;13.20;;
40176;SDS011;31511;46.176;9.874;2024-01-27T00:50:38;22.13;;;13.18;;
40176;SDS011;31511;46.176;9.874;2024-01-27T00:56:07;19.90;;;11.10;;
40176;SDS011;31511;46.176;9.874;2024-01-27T00:58:52;18.55;;;12.52;;
40176;SDS011;31511;46.176;9.874;2024-01-27T01:04:21;18.48;;;9.82;;
40176;SDS011;31511;46.176;9.874;2024-01-27T01:09:50;18.63;;;11.80;;
40176;SDS011;31511;46.176;9.874;2024-01-27T01:12:35;18.48;;;10.10;;
40176;SDS011;31511;46.176;9.874;2024-01-27T01:18:04;15.48;;;9.65;;
40176;SDS011;31511;46.176;9.874;2024-01-27T01:20:49;18.48;;;9.85;;
40176;SDS011;31511;46.176;9.874;2024-01-27T01:23:33;18.35;;;10.07;;
40176;SDS011;31511;46.176;9.874;2024-01-27T01:26:18;19.58;;;11.18;;
40176;SDS011;31511;46.176;9.874;2024-01-27T01:31:48;40.90;;;13.80;;
40176;SDS011;31511;46.176;9.874;2024-01-27T01:34:32;23.30;;;14.05;;
40176;SDS011;31511;46.176;9.874;2024-01-27T01:37:17;22.92;;;12.00;;
40176;SDS011;31511;46.176;9.874;2024-01-27T01:40:02;16.98;;;10.90;;
40176;SDS011;31511;46.176;9.874;2024-01-27T01:42:50;18.65;;;10.00;;
40176;SDS011;31511;46.176;9.874;2024-01-27T01:45:36;18.25;;;10.57;;
40176;SDS011;31511;46.176;9.874;2024-01-27T01:51:05;14.15;;;8.35;;
40176;SDS011;31511;46.176;9.874;2024-01-27T01:53:50;12.38;;;7.80;;
40176;SDS011;31511;46.176;9.874;2024-01-27T01:56:35;12.57;;;7.90;;
40176;SDS011;31511;46.176;9.874;2024-01-27T01:59:21;14.73;;;9.73;;
40176;SDS011;31511;46.176;9.874;2024-01-27T02:04:50;14.57;;;9.35;;
40176;SDS011;31511;46.176;9.874;2024-01-27T02:07:34;11.65;;;7.45;;
40176;SDS011;31511;46.176;9.874;2024-01-27T02:10:19;16.15;;;8.40;;
40176;SDS011;31511;46.176;9.874;2024-01-27T02:15:49;16.65;;;8.10;;
40176;SDS011;31511;46.176;9.874;2024-01-27T02:18:34;13.02;;;6.88;;
40176;SDS011;31511;46.176;9.874;2024-01-27T02:24:06;12.18;;;8.43;;
40176;SDS011;31511;46.176;9.874;2024-01-27T02:26:51;24.95;;;13.13;;
40176;SDS011;31511;46.176;9.874;2024-01-27T02:29:35;16.77;;;11.40;;
40176;SDS011;31511;46.176;9.874;2024-01-27T02:35:04;15.05;;;8.57;;
40176;SDS011;31511;46.176;9.874;2024-01-27T02:37:50;17.75;;;9.60;;
40176;SDS011;31511;46.176;9.874;2024-01-27T02:43:19;10.50;;;6.78;;
40176;SDS011;31511;46.176;9.874;2024-01-27T02:48:48;13.35;;;8.27;;
40176;SDS011;31511;46.176;9.874;2024-01-27T02:51:34;11.18;;;7.82;;
40176;SDS011;31511;46.176;9.874;2024-01-27T02:54:18;15.05;;;8.75;;
40176;SDS011;31511;46.176;9.874;2024-01-27T02:59:48;16.95;;;9.30;;
40176;SDS011;31511;46.176;9.874;2024-01-27T03:02:33;12.52;;;7.97;;
40176;SDS011;31511;46.176;9.874;2024-01-27T03:08:02;18.35;;;9.38;;
40176;SDS011;31511;46.176;9.874;2024-01-27T03:10:47;15.43;;;7.68;;
40176;SDS011;31511;46.176;9.874;2024-01-27T03:16:16;11.27;;;6.90;;
40176;SDS011;31511;46.176;9.874;2024-01-27T03:19:02;12.63;;;7.18;;
40176;SDS011;31511;46.176;9.874;2024-01-27T03:21:46;16.50;;;7.25;;
40176;SDS011;31511;46.176;9.874;2024-01-27T03:24:31;12.65;;;6.85;;
40176;SDS011;31511;46.176;9.874;2024-01-27T03:30:00;9.13;;;7.05;;
40176;SDS011;31511;46.176;9.874;2024-01-27T03:32:46;12.60;;;7.65;;
40176;SDS011;31511;46.176;9.874;2024-01-27T03:35:31;14.05;;;7.35;;
40176;SDS011;31511;46.176;9.874;2024-01-27T03:38:16;14.18;;;7.57;;
40176;SDS011;31511;46.176;9.874;2024-01-27T03:43:45;12.68;;;7.07;;
40176;SDS011;31511;46.176;9.874;2024-01-27T03:46:30;12.13;;;6.88;;
40176;SDS011;31511;46.176;9.874;2024-01-27T03:49:14;10.60;;;6.03;;
40176;SDS011;31511;46.176;9.874;2024-01-27T03:51:59;10.75;;;5.88;;
40176;SDS011;31511;46.176;9.874;2024-01-27T03:57:28;11.25;;;5.95;;
40176;SDS011;31511;46.176;9.874;2024-01-27T04:02:58;10.02;;;6.43;;
40176;SDS011;31511;46.176;9.874;2024-01-27T04:05:43;12.63;;;6.57;;
40176;SDS011;31511;46.176;9.874;2024-01-27T04:11:19;13.23;;;7.10;;
40176;SDS011;31511;46.176;9.874;2024-01-27T04:14:04;14.07;;;6.90;;
40176;SDS011;31511;46.176;9.874;2024-01-27T04:16:49;11.05;;;6.38;;
40176;SDS011;31511;46.176;9.874;2024-01-27T04:19:33;8.82;;;5.40;;
40176;SDS011;31511;46.176;9.874;2024-01-27T04:25:03;7.25;;;4.22;;
40176;SDS011;31511;46.176;9.874;2024-01-27T04:27:48;12.27;;;5.82;;
40176;SDS011;31511;46.176;9.874;2024-01-27T04:30:32;9.88;;;6.25;;
40176;SDS011;31511;46.176;9.874;2024-01-27T04:33:17;13.50;;;6.47;;
40176;SDS011;31511;46.176;9.874;2024-01-27T04:38:46;15.38;;;6.25;;
40176;SDS011;31511;46.176;9.874;2024-01-27T04:41:30;9.32;;;6.07;;
40176;SDS011;31511;46.176;9.874;2024-01-27T04:47:00;7.55;;;4.95;;
40176;SDS011;31511;46.176;9.874;2024-01-27T04:52:29;12.60;;;7.40;;
40176;SDS011;31511;46.176;9.874;2024-01-27T04:55:13;9.00;;;4.95;;
40176;SDS011;31511;46.176;9.874;2024-01-27T04:57:58;5.70;;;3.83;;
40176;SDS011;31511;46.176;9.874;2024-01-27T05:03:27;11.90;;;4.80;;
40176;SDS011;31511;46.176;9.874;2024-01-27T05:08:56;7.00;;;5.03;;
40176;SDS011;31511;46.176;9.874;2024-01-27T05:11:41;9.80;;;5.57;;
40176;SDS011;31511;46.176;9.874;2024-01-27T05:14:26;8.32;;;4.60;;
40176;SDS011;31511;46.176;9.874;2024-01-27T05:19:57;9.25;;;4.15;;
40176;SDS011;31511;46.176;9.874;2024-01-27T05:22:41;7.47;;;3.95;;
40176;SDS011;31511;46.176;9.874;2024-01-27T05:25:26;5.97;;;3.92;;
40176;SDS011;31511;46.176;9.874;2024-01-27T05:28:11;5.45;;;3.67;;
40176;SDS011;31511;46.176;9.874;2024-01-27T05:33:40;6.85;;;3.17;;
40176;SDS011;31511;46.176;9.874;2024-01-27T05:36:25;8.57;;;3.08;;
40176;SDS011;31511;46.176;9.874;2024-01-27T05:39:10;5.95;;;3.97;;
40176;SDS011;31511;46.176;9.874;2024-01-27T05:41:54;5.90;;;3.90;;
40176;SDS011;31511;46.176;9.874;2024-01-27T05:44:39;7.07;;;4.47;;
40176;SDS011;31511;46.176;9.874;2024-01-27T05:47:24;7.13;;;4.63;;
40176;SDS011;31511;46.176;9.874;2024-01-27T05:50:09;7.60;;;4.38;;
40176;SDS011;31511;46.176;9.874;2024-01-27T05:55:39;8.00;;;3.38;;
40176;SDS011;31511;46.176;9.874;2024-01-27T05:58:23;7.05;;;4.07;;
40176;SDS011;31511;46.176;9.874;2024-01-27T06:03:53;5.82;;;2.58;;
40176;SDS011;31511;46.176;9.874;2024-01-27T06:09:23;4.05;;;2.90;;
40176;SDS011;31511;46.176;9.874;2024-01-27T06:14:52;3.08;;;1.88;;
40176;SDS011;31511;46.176;9.874;2024-01-27T06:17:37;2.88;;;1.65;;
40176;SDS011;31511;46.176;9.874;2024-01-27T06:20:21;3.65;;;1.90;;
40176;SDS011;31511;46.176;9.874;2024-01-27T06:25:51;5.53;;;2.90;;
40176;SDS011;31511;46.176;9.874;2024-01-27T06:28:35;12.88;;;6.70;;
40176;SDS011;31511;46.176;9.874;2024-01-27T06:31:20;13.18;;;6.78;;
40176;SDS011;31511;46.176;9.874;2024-01-27T06:34:05;7.72;;;4.43;;
40176;SDS011;31511;46.176;9.874;2024-01-27T06:36:50;4.75;;;3.35;;
40176;SDS011;31511;46.176;9.874;2024-01-27T06:39:34;8.82;;;3.42;;
40176;SDS011;31511;46.176;9.874;2024-01-27T06:45:04;7.65;;;4.20;;
40176;SDS011;31511;46.176;9.874;2024-01-27T06:47:49;5.60;;;3.70;;
40176;SDS011;31511;46.176;9.874;2024-01-27T06:50:35;3.92;;;3.30;;
40176;SDS011;31511;46.176;9.874;2024-01-27T06:53:19;5.45;;;3.42;;
40176;SDS011;31511;46.176;9.874;2024-01-27T06:56:04;8.90;;;3.05;;
40176;SDS011;31511;46.176;9.874;2024-01-27T06:58:48;3.70;;;2.63;;
40176;SDS011;31511;46.176;9.874;2024-01-27T07:01:33;17.02;;;3.40;;
40176;SDS011;31511;46.176;9.874;2024-01-27T07:04:18;11.00;;;2.55;;
40176;SDS011;31511;46.176;9.874;2024-01-27T07:09:47;3.78;;;2.67;;
40176;SDS011;31511;46.176;9.874;2024-01-27T07:15:17;7.25;;;4.30;;
40176;SDS011;31511;46.176;9.874;2024-01-27T07:18:04;6.40;;;3.67;;
40176;SDS011;31511;46.176;9.874;2024-01-27T07:20:49;6.30;;;3.50;;
40176;SDS011;31511;46.176;9.874;2024-01-27T07:23:33;7.10;;;4.05;;
40176;SDS011;31511;46.176;9.874;2024-01-27T07:26:19;5.57;;;3.80;;
40176;SDS011;31511;46.176;9.874;2024-01-27T07:31:49;5.53;;;2.88;;
40176;SDS011;31511;46.176;9.874;2024-01-27T07:34:34;7.20;;;2.78;;
40176;SDS011;31511;46.176;9.874;2024-01-27T07:37:18;4.40;;;2.78;;
40176;SDS011;31511;46.176;9.874;2024-01-27T07:40:04;6.03;;;3.03;;
40176;SDS011;31511;46.176;9.874;2024-01-27T07:42:49;3.58;;;2.13;;
40176;SDS011;31511;46.176;9.874;2024-01-27T07:45:34;12.07;;;4.85;;
40176;SDS011;31511;46.176;9.874;2024-01-27T07:48:18;6.93;;;4.45;;
40176;SDS011;31511;46.176;9.874;2024-01-27T07:53:47;5.85;;;3.65;;
40176;SDS011;31511;46.176;9.874;2024-01-27T07:56:33;7.72;;;3.53;;
40176;SDS011;31511;46.176;9.874;2024-01-27T07:59:18;10.18;;;4.13;;
40176;SDS011;31511;46.176;9.874;2024-01-27T08:02:03;5.47;;;2.92;;
40176;SDS011;31511;46.176;9.874;2024-01-27T08:04:48;7.32;;;2.60;;
40176;SDS011;31511;46.176;9.874;2024-01-27T08:10:18;9.10;;;4.55;;
40176;SDS011;31511;46.176;9.874;2024-01-27T08:13:02;7.18;;;4.25;;
40176;SDS011;31511;46.176;9.874;2024-01-27T08:15:47;10.88;;;4.28;;
40176;SDS011;31511;46.176;9.874;2024-01-27T08:18:31;6.70;;;4.85;;
40176;SDS011;31511;46.176;9.874;2024-01-27T08:21:16;11.30;;;5.38;;
40176;SDS011;31511;46.176;9.874;2024-01-27T08:26:45;8.88;;;5.20;;
40176;SDS011;31511;46.176;9.874;2024-01-27T08:29:32;10.60;;;5.50;;
40176;SDS011;31511;46.176;9.874;2024-01-27T08:32:16;15.50;;;8.77;;
40176;SDS011;31511;46.176;9.874;2024-01-27T08:35:02;14.02;;;7.68;;
40176;SDS011;31511;46.176;9.874;2024-01-27T08:37:46;12.38;;;7.15;;
40176;SDS011;31511;46.176;9.874;2024-01-27T08:43:15;9.68;;;6.78;;
40176;SDS011;31511;46.176;9.874;2024-01-27T08:46:00;11.25;;;7.70;;
40176;SDS011;31511;46.176;9.874;2024-01-27T08:48:44;18.23;;;9.00;;
40176;SDS011;31511;46.176;9.874;2024-01-27T08:54:13;13.20;;;6.43;;
40176;SDS011;31511;46.176;9.874;2024-01-27T08:56:58;10.38;;;7.35;;
40176;SDS011;31511;46.176;9.874;2024-01-27T08:59:42;7.32;;;4.82;;
40176;SDS011;31511;46.176;9.874;2024-01-27T09:02:27;12.45;;;8.63;;
40176;SDS011;31511;46.176;9.874;2024-01-27T09:05:11;12.80;;;8.85;;
40176;SDS011;31511;46.176;9.874;2024-01-27T09:10:41;13.13;;;8.45;;
40176;SDS011;31511;46.176;9.874;2024-01-27T09:13:26;20.50;;;8.95;;
40176;SDS011;31511;46.176;9.874;2024-01-27T09:16:11;17.48;;;10.73;;
40176;SDS011;31511;46.176;9.874;2024-01-27T09:18:57;17.08;;;9.93;;
40176;SDS011;31511;46.176;9.874;2024-01-27T09:21:42;17.70;;;10.52;;
40176;SDS011;31511;46.176;9.874;2024-01-27T09:24:27;12.82;;;8.73;;
40176;SDS011;31511;46.176;9.874;2024-01-27T09:27:11;15.52;;;8.85;;
40176;SDS011;31511;46.176;9.874;2024-01-27T09:29:56;11.25;;;8.05;;
40176;SDS011;31511;46.176;9.874;2024-01-27T09:32:40;15.90;;;9.10;;
40176;SDS011;31511;46.176;9.874;2024-01-27T09:35:25;11.35;;;8.20;;
40176;SDS011;31511;46.176;9.874;2024-01-27T09:38:09;10.85;;;6.97;;
40176;SDS011;31511;46.176;9.874;2024-01-27T09:40:56;11.68;;;8.43;;
40176;SDS011;31511;46.176;9.874;2024-01-27T09:43:44;13.23;;;8.48;;
40176;SDS011;31511;46.176;9.874;2024-01-27T09:46:29;11.68;;;7.13;;
40176;SDS011;31511;46.176;9.874;2024-01-27T09:49:15;12.05;;;7.70;;
40176;SDS011;31511;46.176;9.874;2024-01-27T09:51:59;12.27;;;8.52;;
40176;SDS011;31511;46.176;9.874;2024-01-27T09:54:44;12.85;;;8.82;;
40176;SDS011;31511;46.176;9.874;2024-01-27T09:57:28;23.95;;;13.48;;
40176;SDS011;31511;46.176;9.874;2024-01-27T10:00:13;20.92;;;10.80;;
40176;SDS011;31511;46.176;9.874;2024-01-27T10:03:00;17.63;;;10.90;;
40176;SDS011;31511;46.176;9.874;2024-01-27T10:05:46;15.15;;;11.45;;
40176;SDS011;31511;46.176;9.874;2024-01-27T10:08:32;20.25;;;10.45;;
40176;SDS011;31511;46.176;9.874;2024-01-27T10:11:16;13.90;;;10.20;;
40176;SDS011;31511;46.176;9.874;2024-01-27T10:14:02;19.92;;;11.13;;
40176;SDS011;31511;46.176;9.874;2024-01-27T10:16:46;15.13;;;10.68;;
40176;SDS011;31511;46.176;9.874;2024-01-27T10:19:31;24.00;;;11.40;;
40176;SDS011;31511;46.176;9.874;2024-01-27T10:22:16;14.80;;;10.52;;
40176;SDS011;31511;46.176;9.874;2024-01-27T10:25:00;18.98;;;10.38;;
40176;SDS011;31511;46.176;9.874;2024-01-27T10:27:45;21.42;;;10.38;;
40176;SDS011;31511;46.176;9.874;2024-01-27T10:30:31;15.32;;;10.02;;
40176;SDS011;31511;46.176;9.874;2024-01-27T10:33:15;15.02;;;9.32;;
40176;SDS011;31511;46.176;9.874;2024-01-27T10:36:00;14.90;;;10.40;;
40176;SDS011;31511;46.176;9.874;2024-01-27T10:38:44;16.20;;;9.63;;
40176;SDS011;31511;46.176;9.874;2024-01-27T10:41:29;19.63;;;11.25;;
40176;SDS011;31511;46.176;9.874;2024-01-27T10:44:15;15.35;;;8.60;;
40176;SDS011;31511;46.176;9.874;2024-01-27T10:47:01;12.13;;;8.50;;
40176;SDS011;31511;46.176;9.874;2024-01-27T10:49:47;16.60;;;9.07;;
40176;SDS011;31511;46.176;9.874;2024-01-27T10:52:32;13.27;;;8.63;;
40176;SDS011;31511;46.176;9.874;2024-01-27T10:55:17;17.92;;;9.23;;
40176;SDS011;31511;46.176;9.874;2024-01-27T10:58:02;14.43;;;8.52;;
40176;SDS011;31511;46.176;9.874;2024-01-27T11:00:47;13.50;;;8.45;;
40176;SDS011;31511;46.176;9.874;2024-01-27T11:03:33;13.73;;;8.18;;
40176;SDS011;31511;46.176;9.874;2024-01-27T11:06:18;14.88;;;6.88;;
40176;SDS011;31511;46.176;9.874;2024-01-27T11:09:04;13.32;;;7.35;;
40176;SDS011;31511;46.176;9.874;2024-01-27T11:11:51;10.85;;;6.50;;
40176;SDS011;31511;46.176;9.874;2024-01-27T11:14:36;12.85;;;6.35;;
40176;SDS011;31511;46.176;9.874;2024-01-27T11:17:21;10.43;;;5.75;;
40176;SDS011;31511;46.176;9.874;2024-01-27T11:20:09;11.57;;;5.53;;
40176;SDS011;31511;46.176;9.874;2024-01-27T11:23:10;8.23;;;5.97;;
40176;SDS011;31511;46.176;9.874;2024-01-27T11:26:02;8.15;;;4.68;;
40176;SDS011;31511;46.176;9.874;2024-01-27T11:28:47;12.77;;;5.07;;
40176;SDS011;31511;46.176;9.874;2024-01-27T11:31:32;7.22;;;4.68;;
40176;SDS011;31511;46.176;9.874;2024-01-27T11:34:17;8.05;;;4.50;;
40176;SDS011;31511;46.176;9.874;2024-01-27T11:37:09;7.20;;;4.72;;
40176;SDS011;31511;46.176;9.874;2024-01-27T11:40:03;11.00;;;5.03;;
40176;SDS011;31511;46.176;9.874;2024-01-27T11:42:55;7.88;;;4.35;;
40176;SDS011;31511;46.176;9.874;2024-01-27T11:45:40;9.75;;;5.07;;
40176;SDS011;31511;46.176;9.874;2024-01-27T11:48:25;6.63;;;4.40;;
40176;SDS011;31511;46.176;9.874;2024-01-27T11:51:12;10.45;;;4.57;;
40176;SDS011;31511;46.176;9.874;2024-01-27T11:53:57;6.80;;;4.70;;
40176;SDS011;31511;46.176;9.874;2024-01-27T11:56:41;10.45;;;5.28;;
40176;SDS011;31511;46.176;9.874;2024-01-27T11:59:26;10.48;;;5.20;;
40176;SDS011;31511;46.176;9.874;2024-01-27T12:02:11;5.55;;;4.60;;
40176;SDS011;31511;46.176;9.874;2024-01-27T12:04:55;9.57;;;4.97;;
40176;SDS011;31511;46.176;9.874;2024-01-27T12:07:40;7.25;;;4.95;;
40176;SDS011;31511;46.176;9.874;2024-01-27T12:10:24;8.15;;;5.05;;
40176;SDS011;31511;46.176;9.874;2024-01-27T12:13:09;6.35;;;4.22;;
40176;SDS011;31511;46.176;9.874;2024-01-27T12:15:53;6.97;;;4.07;;
40176;SDS011;31511;46.176;9.874;2024-01-27T12:18:38;7.18;;;3.22;;
40176;SDS011;31511;46.176;9.874;2024-01-27T12:21:22;7.45;;;3.35;;
40176;SDS011;31511;46.176;9.874;2024-01-27T12:24:13;7.88;;;3.28;;
40176;SDS011;31511;46.176;9.874;2024-01-27T12:26:59;4.60;;;2.50;;
40176;SDS011;31511;46.176;9.874;2024-01-27T12:29:45;7.88;;;3.13;;
40176;SDS011;31511;46.176;9.874;2024-01-27T12:32:30;6.28;;;3.00;;
40176;SDS011;31511;46.176;9.874;2024-01-27T12:35:15;8.57;;;2.78;;
40176;SDS011;31511;46.176;9.874;2024-01-27T12:37:59;3.78;;;2.22;;
40176;SDS011;31511;46.176;9.874;2024-01-27T12:40:44;4.30;;;2.42;;
40176;SDS011;31511;46.176;9.874;2024-01-27T12:43:28;2.40;;;1.80;;
40176;SDS011;31511;46.176;9.874;2024-01-27T12:46:13;1.77;;;1.20;;
40176;SDS011;31511;46.176;9.874;2024-01-27T12:48:58;4.28;;;1.42;;
40176;SDS011;31511;46.176;9.874;2024-01-27T12:51:43;3.47;;;1.17;;
40176;SDS011;31511;46.176;9.874;2024-01-27T12:54:29;3.63;;;1.90;;
40176;SDS011;31511;46.176;9.874;2024-01-27T12:57:14;2.05;;;1.55;;
40176;SDS011;31511;46.176;9.874;2024-01-27T12:59:59;3.78;;;1.63;;
40176;SDS011;31511;46.176;9.874;2024-01-27T13:02:43;2.95;;;1.85;;
40176;SDS011;31511;46.176;9.874;2024-01-27T13:05:28;5.13;;;1.95;;
40176;SDS011;31511;46.176;9.874;2024-01-27T13:08:14;5.57;;;2.20;;
40176;SDS011;31511;46.176;9.874;2024-01-27T13:10:58;2.38;;;1.85;;
40176;SDS011;31511;46.176;9.874;2024-01-27T13:13:43;3.55;;;2.17;;
40176;SDS011;31511;46.176;9.874;2024-01-27T13:16:28;8.88;;;2.33;;
40176;SDS011;31511;46.176;9.874;2024-01-27T13:19:12;7.03;;;1.83;;
40176;SDS011;31511;46.176;9.874;2024-01-27T13:21:57;2.75;;;1.92;;
40176;SDS011;31511;46.176;9.874;2024-01-27T13:24:42;6.05;;;1.20;;
40176;SDS011;31511;46.176;9.874;2024-01-27T13:27:26;2.50;;;1.40;;
40176;SDS011;31511;46.176;9.874;2024-01-27T13:30:11;4.22;;;1.83;;
40176;SDS011;31511;46.176;9.874;2024-01-27T13:32:56;2.15;;;1.42;;
40176;SDS011;31511;46.176;9.874;2024-01-27T13:35:40;3.58;;;1.85;;
40176;SDS011;31511;46.176;9.874;2024-01-27T13:38:29;6.43;;;2.13;;
40176;SDS011;31511;46.176;9.874;2024-01-27T13:41:14;5.03;;;2.42;;
40176;SDS011;31511;46.176;9.874;2024-01-27T13:43:59;3.50;;;2.15;;
40176;SDS011;31511;46.176;9.874;2024-01-27T13:46:44;5.18;;;1.77;;
40176;SDS011;31511;46.176;9.874;2024-01-27T13:49:28;2.88;;;1.73;;
40176;SDS011;31511;46.176;9.874;2024-01-27T13:52:13;2.92;;;1.30;;
40176;SDS011;31511;46.176;9.874;2024-01-27T13:54:57;6.03;;;1.92;;
40176;SDS011;31511;46.176;9.874;2024-01-27T13:57:43;3.25;;;1.55;;
40176;SDS011;31511;46.176;9.874;2024-01-27T14:00:28;3.03;;;1.45;;
40176;SDS011;31511;46.176;9.874;2024-01-27T14:03:14;10.05;;;4.18;;
40176;SDS011;31511;46.176;9.874;2024-01-27T14:05:58;5.65;;;1.75;;
40176;SDS011;31511;46.176;9.874;2024-01-27T14:08:43;6.18;;;2.00;;
40176;SDS011;31511;46.176;9.874;2024-01-27T14:11:28;3.72;;;1.80;;
40176;SDS011;31511;46.176;9.874;2024-01-27T14:14:13;6.47;;;2.60;;
40176;SDS011;31511;46.176;9.874;2024-01-27T14:16:57;3.10;;;2.10;;
40176;SDS011;31511;46.176;9.874;2024-01-27T14:19:42;5.05;;;2.25;;
40176;SDS011;31511;46.176;9.874;2024-01-27T14:22:26;7.70;;;2.90;;
40176;SDS011;31511;46.176;9.874;2024-01-27T14:25:11;4.10;;;2.05;;
40176;SDS011;31511;46.176;9.874;2024-01-27T14:27:56;4.03;;;1.98;;
40176;SDS011;31511;46.176;9.874;2024-01-27T14:30:40;5.22;;;1.80;;
40176;SDS011;31511;46.176;9.874;2024-01-27T14:33:27;2.50;;;1.35;;
40176;SDS011;31511;46.176;9.874;2024-01-27T14:36:11;2.67;;;1.45;;
40176;SDS011;31511;46.176;9.874;2024-01-27T14:38:56;2.25;;;1.20;;
40176;SDS011;31511;46.176;9.874;2024-01-27T14:41:41;2.38;;;1.25;;
40176;SDS011;31511;46.176;9.874;2024-01-27T14:44:25;4.40;;;1.60;;
40176;SDS011;31511;46.176;9.874;2024-01-27T14:47:10;4.75;;;2.30;;
40176;SDS011;31511;46.176;9.874;2024-01-27T14:49:55;3.72;;;1.63;;
40176;SDS011;31511;46.176;9.874;2024-01-27T14:52:40;4.22;;;2.22;;
40176;SDS011;31511;46.176;9.874;2024-01-27T14:55:25;3.08;;;2.30;;
40176;SDS011;31511;46.176;9.874;2024-01-27T14:58:09;4.35;;;2.72;;
40176;SDS011;31511;46.176;9.874;2024-01-27T15:00:54;4.95;;;2.53;;
40176;SDS011;31511;46.176;9.874;2024-01-27T15:03:40;3.42;;;1.75;;
40176;SDS011;31511;46.176;9.874;2024-01-27T15:06:25;3.60;;;1.60;;
40176;SDS011;31511;46.176;9.874;2024-01-27T15:09:10;5.00;;;1.95;;
40176;SDS011;31511;46.176;9.874;2024-01-27T15:11:55;5.35;;;1.90;;
40176;SDS011;31511;46.176;9.874;2024-01-27T15:14:39;3.78;;;1.90;;
40176;SDS011;31511;46.176;9.874;2024-01-27T15:17:24;7.55;;;1.77;;
40176;SDS011;31511;46.176;9.874;2024-01-27T15:20:09;7.60;;;2.53;;
40176;SDS011;31511;46.176;9.874;2024-01-27T15:22:55;4.75;;;2.35;;
40176;SDS011;31511;46.176;9.874;2024-01-27T15:28:16;6.32;;;2.40;;
40176;SDS011;31511;46.176;9.874;2024-01-27T15:31:00;5.15;;;2.42;;
40176;SDS011;31511;46.176;9.874;2024-01-27T15:33:45;14.05;;;3.17;;
40176;SDS011;31511;46.176;9.874;2024-01-27T15:36:29;5.60;;;2.35;;
40176;SDS011;31511;46.176;9.874;2024-01-27T15:41:44;6.82;;;2.75;;
40176;SDS011;31511;46.176;9.874;2024-01-27T15:44:29;11.93;;;2.42;;
40176;SDS011;31511;46.176;9.874;2024-01-27T15:47:14;6.50;;;2.13;;
40176;SDS011;31511;46.176;9.874;2024-01-27T15:49:59;3.40;;;1.90;;
40176;SDS011;31511;46.176;9.874;2024-01-27T15:52:49;5.75;;;2.13;;
40176;SDS011;31511;46.176;9.874;2024-01-27T15:55:34;10.07;;;2.65;;
40176;SDS011;31511;46.176;9.874;2024-01-27T15:58:19;7.65;;;2.40;;
40176;SDS011;31511;46.176;9.874;2024-01-27T16:01:04;6.35;;;3.03;;
40176;SDS011;31511;46.176;9.874;2024-01-27T16:03:49;4.63;;;2.38;;
40176;SDS011;31511;46.176;9.874;2024-01-27T16:06:34;8.57;;;2.38;;
40176;SDS011;31511;46.176;9.874;2024-01-27T16:09:19;9.63;;;3.15;;
40176;SDS011;31511;46.176;9.874;2024-01-27T16:12:03;4.40;;;2.85;;
40176;SDS011;31511;46.176;9.874;2024-01-27T16:14:48;5.47;;;2.47;;
40176;SDS011;31511;46.176;9.874;2024-01-27T16:17:33;8.75;;;2.78;;
40176;SDS011;31511;46.176;9.874;2024-01-27T16:20:17;4.85;;;3.20;;
40176;SDS011;31511;46.176;9.874;2024-01-27T16:23:02;8.00;;;4.07;;
40176;SDS011;31511;46.176;9.874;2024-01-27T16:25:47;9.75;;;3.22;;
40176;SDS011;31511;46.176;9.874;2024-01-27T16:28:32;28.88;;;11.57;;
40176;SDS011;31511;46.176;9.874;2024-01-27T16:31:17;37.00;;;14.07;;
40176;SDS011;31511;46.176;9.874;2024-01-27T16:34:02;15.32;;;7.40;;
40176;SDS011;31511;46.176;9.874;2024-01-27T16:36:47;14.80;;;5.22;;
40176;SDS011;31511;46.176;9.874;2024-01-27T16:39:31;9.68;;;4.40;;
40176;SDS011;31511;46.176;9.874;2024-01-27T16:42:16;9.43;;;4.20;;
40176;SDS011;31511;46.176;9.874;2024-01-27T16:45:00;10.93;;;5.13;;
40176;SDS011;31511;46.176;9.874;2024-01-27T16:47:45;9.60;;;6.18;;
40176;SDS011;31511;46.176;9.874;2024-01-27T16:50:30;11.00;;;5.53;;
40176;SDS011;31511;46.176;9.874;2024-01-27T16:53:15;9.10;;;4.60;;
40176;SDS011;31511;46.176;9.874;2024-01-27T16:55:59;10.60;;;5.57;;
40176;SDS011;31511;46.176;9.874;2024-01-27T16:58:44;6.93;;;4.20;;
40176;SDS011;31511;46.176;9.874;2024-01-27T17:01:33;7.72;;;3.67;;
40176;SDS011;31511;46.176;9.874;2024-01-27T17:04:18;6.40;;;3.53;;
40176;SDS011;31511;46.176;9.874;2024-01-27T17:07:03;9.85;;;6.00;;
40176;SDS011;31511;46.176;9.874;2024-01-27T17:09:47;8.35;;;4.45;;
40176;SDS011;31511;46.176;9.874;2024-01-27T17:12:32;9.50;;;6.15;;
40176;SDS011;31511;46.176;9.874;2024-01-27T17:15:17;20.30;;;7.18;;
40176;SDS011;31511;46.176;9.874;2024-01-27T17:18:01;7.68;;;4.65;;
40176;SDS011;31511;46.176;9.874;2024-01-27T17:20:46;7.40;;;3.30;;
40176;SDS011;31511;46.176;9.874;2024-01-27T17:23:31;7.53;;;3.83;;
40176;SDS011;31511;46.176;9.874;2024-01-27T17:26:16;11.48;;;3.78;;
40176;SDS011;31511;46.176;9.874;2024-01-27T17:29:01;8.20;;;5.07;;
40176;SDS011;31511;46.176;9.874;2024-01-27T17:31:46;6.70;;;4.00;;
40176;SDS011;31511;46.176;9.874;2024-01-27T17:34:31;10.52;;;6.50;;
40176;SDS011;31511;46.176;9.874;2024-01-27T17:37:16;13.90;;;4.85;;
40176;SDS011;31511;46.176;9.874;2024-01-27T17:40:01;6.15;;;3.42;;
40176;SDS011;31511;46.176;9.874;2024-01-27T17:42:49;6.93;;;3.28;;
40176;SDS011;31511;46.176;9.874;2024-01-27T17:45:33;8.32;;;4.88;;
40176;SDS011;31511;46.176;9.874;2024-01-27T17:51:03;9.40;;;4.47;;
40176;SDS011;31511;46.176;9.874;2024-01-27T17:53:48;7.07;;;4.05;;
40176;SDS011;31511;46.176;9.874;2024-01-27T17:56:33;11.52;;;5.53;;
40176;SDS011;31511;46.176;9.874;2024-01-27T17:59:17;11.52;;;6.28;;
40176;SDS011;31511;46.176;9.874;2024-01-27T18:02:02;11.20;;;6.03;;
40176;SDS011;31511;46.176;9.874;2024-01-27T18:04:47;13.23;;;6.13;;
40176;SDS011;31511;46.176;9.874;2024-01-27T18:13:01;9.77;;;6.00;;
40176;SDS011;31511;46.176;9.874;2024-01-27T18:15:45;10.93;;;5.97;;
40176;SDS011;31511;46.176;9.874;2024-01-27T18:18:30;14.50;;;7.18;;
40176;SDS011;31511;46.176;9.874;2024-01-27T18:21:16;13.93;;;5.40;;
40176;SDS011;31511;46.176;9.874;2024-01-27T18:24:01;12.77;;;7.68;;
40176;SDS011;31511;46.176;9.874;2024-01-27T18:29:30;9.65;;;6.18;;
40176;SDS011;31511;46.176;9.874;2024-01-27T18:32:14;8.18;;;4.93;;
40176;SDS011;31511;46.176;9.874;2024-01-27T18:34:59;7.32;;;4.50;;
40176;SDS011;31511;46.176;9.874;2024-01-27T18:40:28;7.85;;;4.55;;
40176;SDS011;31511;46.176;9.874;2024-01-27T18:43:13;13.60;;;4.80;;
40176;SDS011;31511;46.176;9.874;2024-01-27T18:45:58;8.82;;;5.13;;
40176;SDS011;31511;46.176;9.874;2024-01-27T18:48:44;8.20;;;4.93;;
40176;SDS011;31511;46.176;9.874;2024-01-27T18:51:32;8.50;;;4.80;;
40176;SDS011;31511;46.176;9.874;2024-01-27T18:54:17;7.90;;;4.07;;
40176;SDS011;31511;46.176;9.874;2024-01-27T18:57:04;6.78;;;4.13;;